createdAt,value
2018-10-02T00:00:36.442Z,102352.77
2018-10-02T00:01:36.737Z,102352.70
2018-10-02T00:02:37.193Z,102353.20
2018-10-02T00:03:37.498Z,102352.99
2018-10-02T00:04:37.923Z,102353.58
2018-10-02T00:05:38.179Z,102354.41
2018-10-02T00:06:38.457Z,102354.93
2018-10-02T00:07:38.842Z,102355.34
2018-10-02T00:08:39.320Z,102355.48
2018-10-02T00:09:39.712Z,102355.89
2018-10-02T00:10:40.017Z,102357.00
2018-10-02T00:11:40.240Z,102357.50
2018-10-02T00:12:40.946Z,102357.92
2018-10-02T00:13:41.382Z,102358.77
2018-10-02T00:14:41.735Z,102359.94
2018-10-02T00:15:42.178Z,102360.70
2018-10-02T00:16:42.428Z,102361.70
2018-10-02T00:17:42.836Z,102362.47
2018-10-02T00:18:43.088Z,102363.14
2018-10-02T00:18:51.457Z,102372.57
2018-10-02T00:19:52.679Z,102373.59
2018-10-02T00:20:52.891Z,102373.08
2018-10-02T00:21:53.291Z,102373.25
2018-10-02T00:22:53.568Z,102373.08
2018-10-02T00:23:53.856Z,102372.74
2018-10-02T00:24:54.208Z,102372.23
2018-10-02T00:25:54.449Z,102371.73
2018-10-02T00:26:54.669Z,102371.73
2018-10-02T00:27:54.938Z,102371.23
2018-10-02T00:28:55.272Z,102370.73
2018-10-02T00:29:55.585Z,102370.39
2018-10-02T00:30:55.951Z,102370.48
2018-10-02T00:31:56.323Z,102370.62
2018-10-02T00:32:55.908Z,102370.72
2018-10-02T00:33:57.810Z,102370.13
2018-10-02T00:34:58.183Z,102369.95
2018-10-02T00:35:58.549Z,102369.63
2018-10-02T00:36:58.829Z,102369.09
2018-10-02T00:37:59.302Z,102368.78
2018-10-02T00:39:00.187Z,102369.09
2018-10-02T00:40:00.634Z,102368.51
2018-10-02T00:41:00.946Z,102367.22
2018-10-02T00:42:01.354Z,102366.64
2018-10-02T00:43:01.783Z,102365.30
2018-10-02T00:44:02.695Z,102364.55
2018-10-02T00:45:02.771Z,102363.03
2018-10-02T00:46:03.167Z,102362.28
2018-10-02T00:47:03.529Z,102361.33
2018-10-02T00:48:03.891Z,102360.58
2018-10-02T00:49:03.916Z,102360.25
2018-10-02T00:50:04.372Z,102359.22
2018-10-02T00:51:04.716Z,102358.05
2018-10-02T00:52:05.096Z,102356.72
2018-10-02T00:53:05.439Z,102355.59
2018-10-02T00:54:05.969Z,102354.67
2018-10-02T00:55:06.243Z,102353.98
2018-10-02T00:56:06.538Z,102353.23
2018-10-02T00:57:06.943Z,102352.05
2018-10-02T00:58:07.192Z,102351.05
2018-10-02T00:59:07.610Z,102350.20
2018-10-02T01:00:07.841Z,102349.02
2018-10-02T01:01:08.462Z,102347.59
2018-10-02T01:02:08.918Z,102346.69
2018-10-02T01:02:17.683Z,102333.67
2018-10-02T01:03:18.407Z,102326.81
2018-10-02T01:04:18.905Z,102326.81
2018-10-02T01:05:19.420Z,102326.98
2018-10-02T01:06:19.760Z,102326.72
2018-10-02T01:07:20.034Z,102326.72
2018-10-02T01:08:20.311Z,102326.63
2018-10-02T01:09:20.491Z,102326.30
2018-10-02T01:10:20.833Z,102326.41
2018-10-02T01:11:21.242Z,102325.72
2018-10-02T01:12:22.142Z,102324.82
2018-10-02T01:13:22.567Z,102324.47
2018-10-02T01:14:23.485Z,102323.66
2018-10-02T01:15:23.905Z,102323.48
2018-10-02T01:16:24.917Z,102322.30
2018-10-02T01:17:25.284Z,102321.78
2018-10-02T01:18:25.914Z,102321.19
2018-10-02T01:19:26.901Z,102320.54
2018-10-02T01:20:27.242Z,102319.52
2018-10-02T01:21:27.687Z,102318.53
2018-10-02T01:22:28.165Z,102318.44
2018-10-02T01:23:28.507Z,102317.62
2018-10-02T01:24:28.954Z,102317.36
2018-10-02T01:25:29.931Z,102316.70
2018-10-02T01:26:30.367Z,102316.02
2018-10-02T01:27:30.744Z,102315.85
2018-10-02T01:28:31.204Z,102315.69
2018-10-02T01:29:31.658Z,102315.34
2018-10-02T01:30:32.300Z,102314.67
2018-10-02T01:31:32.647Z,102314.26
2018-10-02T01:32:33.380Z,102313.84
2018-10-02T01:33:33.848Z,102313.34
2018-10-02T01:34:34.400Z,102313.06
2018-10-02T01:35:34.963Z,102312.05
2018-10-02T01:36:35.933Z,102311.88
2018-10-02T01:37:36.177Z,102311.64
2018-10-02T01:38:36.830Z,102310.97
2018-10-02T01:39:37.094Z,102311.06
2018-10-02T01:40:37.355Z,102310.38
2018-10-02T01:41:37.673Z,102309.88
2018-10-02T01:42:37.681Z,102309.80
2018-10-02T01:43:37.867Z,102309.45
2018-10-02T01:44:38.292Z,102308.92
2018-10-02T01:45:38.703Z,102308.34
2018-10-02T01:45:46.748Z,102309.64
2018-10-02T01:46:48.178Z,102307.11
2018-10-02T01:47:48.724Z,102306.78
2018-10-02T01:48:49.102Z,102306.44
2018-10-02T01:49:49.482Z,102306.11
2018-10-02T01:50:49.792Z,102305.38
2018-10-02T01:51:50.075Z,102304.95
2018-10-02T01:52:50.564Z,102305.03
2018-10-02T01:53:51.109Z,102304.63
2018-10-02T01:54:51.493Z,102304.12
2018-10-02T01:55:51.829Z,102303.97
2018-10-02T01:56:52.387Z,102303.63
2018-10-02T01:57:52.776Z,102303.53
2018-10-02T01:58:53.057Z,102303.30
2018-10-02T01:59:53.679Z,102303.21
2018-10-02T02:00:54.101Z,102302.78
2018-10-02T02:01:54.681Z,102303.12
2018-10-02T02:02:54.948Z,102302.95
2018-10-02T02:03:55.451Z,102303.38
2018-10-02T02:04:55.672Z,102304.65
2018-10-02T02:05:55.906Z,102305.16
2018-10-02T02:06:56.226Z,102304.73
2018-10-02T02:07:56.707Z,102305.06
2018-10-02T02:08:57.263Z,102306.16
2018-10-02T02:09:57.538Z,102306.72
2018-10-02T02:10:58.088Z,102306.89
2018-10-02T02:11:58.505Z,102307.56
2018-10-02T02:12:58.781Z,102307.91
2018-10-02T02:13:59.066Z,102308.23
2018-10-02T02:14:59.399Z,102308.83
2018-10-02T02:15:59.475Z,102309.34
2018-10-02T02:16:59.774Z,102309.77
2018-10-02T02:18:00.278Z,102310.03
2018-10-02T02:19:00.701Z,102310.25
2018-10-02T02:20:01.028Z,102310.34
2018-10-02T02:21:01.434Z,102310.77
2018-10-02T02:22:01.575Z,102311.20
2018-10-02T02:23:01.986Z,102311.59
2018-10-02T02:24:02.456Z,102312.19
2018-10-02T02:25:02.722Z,102312.19
2018-10-02T02:26:03.647Z,102312.52
2018-10-02T02:27:04.112Z,102313.11
2018-10-02T02:28:04.423Z,102313.51
2018-10-02T02:29:04.717Z,102313.79
2018-10-02T02:30:05.049Z,102313.70
2018-10-02T02:30:13.400Z,102311.87
2018-10-02T02:31:14.789Z,102315.75
2018-10-02T02:32:15.767Z,102315.35
2018-10-02T02:33:16.246Z,102314.92
2018-10-02T02:34:16.596Z,102315.09
2018-10-02T02:35:16.965Z,102314.59
2018-10-02T02:36:17.258Z,102313.92
2018-10-02T02:37:18.143Z,102313.41
2018-10-02T02:38:18.517Z,102312.31
2018-10-02T02:39:18.824Z,102311.37
2018-10-02T02:40:19.154Z,102310.31
2018-10-02T02:41:19.448Z,102309.13
2018-10-02T02:42:19.857Z,102308.14
2018-10-02T02:43:20.068Z,102308.05
2018-10-02T02:44:20.554Z,102308.23
2018-10-02T02:45:21.028Z,102307.55
2018-10-02T02:46:21.439Z,102306.62
2018-10-02T02:47:21.921Z,102306.45
2018-10-02T02:48:22.323Z,102305.94
2018-10-02T02:49:22.671Z,102305.38
2018-10-02T02:50:22.965Z,102305.05
2018-10-02T02:51:23.315Z,102304.28
2018-10-02T02:52:23.756Z,102303.77
2018-10-02T02:53:23.565Z,102303.54
2018-10-02T02:54:25.520Z,102303.62
2018-10-02T02:55:25.800Z,102302.59
2018-10-02T02:56:26.270Z,102302.11
2018-10-02T02:57:26.656Z,102301.13
2018-10-02T02:58:27.087Z,102300.95
2018-10-02T02:59:27.612Z,102300.36
2018-10-02T03:00:27.892Z,102300.27
2018-10-02T03:01:28.217Z,102299.34
2018-10-02T03:02:28.496Z,102298.33
2018-10-02T03:03:28.905Z,102297.77
2018-10-02T03:04:29.274Z,102297.34
2018-10-02T03:05:29.698Z,102296.58
2018-10-02T03:06:30.099Z,102296.15
2018-10-02T03:07:30.912Z,102295.42
2018-10-02T03:08:31.161Z,102294.83
2018-10-02T03:09:31.696Z,102294.06
2018-10-02T03:10:31.809Z,102293.63
2018-10-02T03:11:32.129Z,102293.63
2018-10-02T03:12:32.548Z,102293.23
2018-10-02T03:12:40.594Z,102293.46
2018-10-02T03:13:41.798Z,102293.03
2018-10-02T03:14:42.044Z,102293.70
2018-10-02T03:15:42.200Z,102293.95
2018-10-02T03:16:42.605Z,102293.81
2018-10-02T03:17:43.052Z,102293.45
2018-10-02T03:18:43.365Z,102293.91
2018-10-02T03:19:44.222Z,102293.05
2018-10-02T03:20:44.583Z,102292.73
2018-10-02T03:21:45.003Z,102292.22
2018-10-02T03:22:44.319Z,102291.98
2018-10-02T03:23:45.744Z,102291.81
2018-10-02T03:24:46.009Z,102291.92
2018-10-02T03:25:46.685Z,102291.51
2018-10-02T03:26:46.970Z,102292.11
2018-10-02T03:27:47.325Z,102291.95
2018-10-02T03:28:47.621Z,102291.94
2018-10-02T03:29:47.931Z,102291.95
2018-10-02T03:30:48.515Z,102291.78
2018-10-02T03:31:49.433Z,102290.79
2018-10-02T03:32:49.794Z,102289.94
2018-10-02T03:33:50.154Z,102289.28
2018-10-02T03:34:50.485Z,102288.59
2018-10-02T03:35:50.917Z,102287.61
2018-10-02T03:36:51.164Z,102287.18
2018-10-02T03:37:51.570Z,102286.27
2018-10-02T03:38:50.906Z,102285.25
2018-10-02T03:39:52.151Z,102284.75
2018-10-02T03:40:53.077Z,102284.69
2018-10-02T03:41:53.558Z,102284.18
2018-10-02T03:42:53.837Z,102284.26
2018-10-02T03:43:53.755Z,102284.17
2018-10-02T03:44:55.151Z,102284.84
2018-10-02T03:45:55.576Z,102284.67
2018-10-02T03:46:55.866Z,102284.26
2018-10-02T03:47:56.205Z,102283.34
2018-10-02T03:48:56.608Z,102282.50
2018-10-02T03:49:55.846Z,102281.72
2018-10-02T03:50:57.211Z,102280.47
2018-10-02T03:51:58.208Z,102279.97
2018-10-02T03:52:58.536Z,102278.96
2018-10-02T03:53:58.826Z,102278.85
2018-10-02T03:54:59.101Z,102278.27
2018-10-02T03:55:59.386Z,102277.59
2018-10-02T03:56:59.781Z,102277.26
2018-10-02T03:58:00.517Z,102276.92
2018-10-02T03:59:01.443Z,102275.99
2018-10-02T03:59:09.849Z,102271.56
2018-10-02T04:00:11.210Z,102270.97
2018-10-02T04:01:11.491Z,102270.30
2018-10-02T04:02:11.802Z,102269.44
2018-10-02T04:03:12.103Z,102269.11
2018-10-02T04:04:12.621Z,102267.87
2018-10-02T04:05:13.106Z,102267.09
2018-10-02T04:06:13.584Z,102266.92
2018-10-02T04:07:13.919Z,102266.58
2018-10-02T04:08:14.212Z,102266.08
2018-10-02T04:09:14.752Z,102264.75
2018-10-02T04:10:15.047Z,102264.34
2018-10-02T04:11:15.375Z,102262.98
2018-10-02T04:12:15.669Z,102262.42
2018-10-02T04:13:16.598Z,102262.25
2018-10-02T04:14:15.803Z,102261.48
2018-10-02T04:15:17.085Z,102261.32
2018-10-02T04:16:17.590Z,102261.24
2018-10-02T04:17:17.993Z,102260.14
2018-10-02T04:18:17.270Z,102259.38
2018-10-02T04:19:18.645Z,102258.56
2018-10-02T04:20:18.967Z,102257.95
2018-10-02T04:21:18.314Z,102257.73
2018-10-02T04:22:19.579Z,102257.47
2018-10-02T04:23:19.793Z,102257.32
2018-10-02T04:24:19.052Z,102256.47
2018-10-02T04:25:20.355Z,102256.32
2018-10-02T04:26:20.682Z,102255.56
2018-10-02T04:27:21.416Z,102254.96
2018-10-02T04:28:21.735Z,102253.97
2018-10-02T04:29:21.418Z,102253.21
2018-10-02T04:30:22.711Z,102252.61
2018-10-02T04:31:23.006Z,102251.27
2018-10-02T04:32:23.601Z,102250.59
2018-10-02T04:33:24.537Z,102249.42
2018-10-02T04:34:24.821Z,102248.84
2018-10-02T04:35:25.206Z,102248.26
2018-10-02T04:36:24.621Z,102246.98
2018-10-02T04:37:26.000Z,102245.98
2018-10-02T04:38:26.528Z,102245.14
2018-10-02T04:39:26.862Z,102243.87
2018-10-02T04:40:26.166Z,102243.20
2018-10-02T04:41:27.551Z,102242.44
2018-10-02T04:42:27.850Z,102241.70
2018-10-02T04:43:28.083Z,102240.86
2018-10-02T04:44:28.301Z,102240.29
2018-10-02T04:45:28.887Z,102239.10
2018-10-02T04:46:29.780Z,102237.61
2018-10-02T04:47:30.277Z,102236.34
2018-10-02T04:47:38.562Z,102217.55
2018-10-02T04:48:39.819Z,102216.05
2018-10-02T04:49:39.906Z,102215.71
2018-10-02T04:50:40.329Z,102215.88
2018-10-02T04:51:40.619Z,102215.98
2018-10-02T04:52:41.032Z,102215.98
2018-10-02T04:53:41.396Z,102215.88
2018-10-02T04:54:41.764Z,102215.38
2018-10-02T04:55:41.922Z,102215.04
2018-10-02T04:56:41.167Z,102214.87
2018-10-02T04:57:42.476Z,102215.39
2018-10-02T04:58:42.793Z,102215.28
2018-10-02T04:59:43.208Z,102215.29
2018-10-02T05:00:43.448Z,102215.21
2018-10-02T05:01:43.702Z,102215.44
2018-10-02T05:02:44.025Z,102215.11
2018-10-02T05:03:44.428Z,102215.43
2018-10-02T05:04:44.701Z,102215.19
2018-10-02T05:05:45.095Z,102215.44
2018-10-02T05:06:45.604Z,102215.53
2018-10-02T05:07:45.889Z,102215.25
2018-10-02T05:08:46.314Z,102214.02
2018-10-02T05:09:45.549Z,102213.59
2018-10-02T05:10:46.841Z,102213.42
2018-10-02T05:11:47.167Z,102212.49
2018-10-02T05:12:47.599Z,102211.90
2018-10-02T05:13:47.910Z,102211.34
2018-10-02T05:14:47.171Z,102211.00
2018-10-02T05:15:48.491Z,102210.16
2018-10-02T05:16:48.816Z,102209.66
2018-10-02T05:17:49.032Z,102208.81
2018-10-02T05:18:49.405Z,102207.64
2018-10-02T05:19:49.623Z,102206.37
2018-10-02T05:20:50.051Z,102205.11
2018-10-02T05:21:49.394Z,102203.78
2018-10-02T05:22:50.748Z,102203.02
2018-10-02T05:23:51.123Z,102202.25
2018-10-02T05:24:51.465Z,102202.00
2018-10-02T05:25:51.773Z,102201.60
2018-10-02T05:26:52.390Z,102201.09
2018-10-02T05:27:52.700Z,102200.00
2018-10-02T05:28:53.030Z,102198.82
2018-10-02T05:29:53.256Z,102198.48
2018-10-02T05:30:53.570Z,102197.31
2018-10-02T05:31:53.840Z,102196.47
2018-10-02T05:32:54.072Z,102196.22
2018-10-02T05:33:54.311Z,102194.88
2018-10-02T05:34:54.683Z,102193.87
2018-10-02T05:35:53.825Z,102193.36
2018-10-02T05:36:55.042Z,102192.17
2018-10-02T05:37:03.392Z,102176.63
2018-10-02T05:38:04.713Z,102176.03
2018-10-02T05:39:04.997Z,102176.53
2018-10-02T05:40:05.041Z,102176.95
2018-10-02T05:41:05.495Z,102177.69
2018-10-02T05:42:05.730Z,102178.03
2018-10-02T05:43:05.999Z,102178.45
2018-10-02T05:44:06.313Z,102178.80
2018-10-02T05:45:06.648Z,102179.88
2018-10-02T05:46:06.970Z,102179.86
2018-10-02T05:47:07.364Z,102180.38
2018-10-02T05:48:07.806Z,102180.52
2018-10-02T05:49:08.127Z,102181.59
2018-10-02T05:50:08.506Z,102182.11
2018-10-02T05:51:08.832Z,102182.27
2018-10-02T05:52:09.104Z,102182.66
2018-10-02T05:53:09.683Z,102182.83
2018-10-02T05:54:10.003Z,102183.24
2018-10-02T05:55:10.295Z,102183.81
2018-10-02T05:56:10.572Z,102184.31
2018-10-02T05:57:10.932Z,102184.45
2018-10-02T05:58:11.188Z,102184.88
2018-10-02T05:59:11.472Z,102185.25
2018-10-02T06:00:11.790Z,102185.75
2018-10-02T06:01:12.019Z,102186.50
2018-10-02T06:02:12.285Z,102187.00
2018-10-02T06:03:12.674Z,102186.39
2018-10-02T06:04:12.982Z,102187.15
2018-10-02T06:05:13.503Z,102186.96
2018-10-02T06:06:13.782Z,102186.86
2018-10-02T06:07:14.121Z,102186.45
2018-10-02T06:08:14.444Z,102186.52
2018-10-02T06:09:14.686Z,102186.59
2018-10-02T06:10:15.234Z,102186.41
2018-10-02T06:11:15.485Z,102185.83
2018-10-02T06:12:15.882Z,102185.66
2018-10-02T06:13:16.262Z,102185.56
2018-10-02T06:14:16.594Z,102185.13
2018-10-02T06:15:16.914Z,102184.95
2018-10-02T06:16:18.187Z,102184.34
2018-10-02T06:17:17.615Z,102183.74
2018-10-02T06:18:18.034Z,102183.48
2018-10-02T06:19:18.290Z,102183.08
2018-10-02T06:20:18.545Z,102181.88
2018-10-02T06:20:28.595Z,102168.34
2018-10-02T06:21:29.807Z,102167.75
2018-10-02T06:22:30.168Z,102168.09
2018-10-02T06:23:30.872Z,102168.42
2018-10-02T06:24:31.394Z,102167.69
2018-10-02T06:25:30.643Z,102168.11
2018-10-02T06:26:31.881Z,102168.45
2018-10-02T06:27:32.156Z,102168.70
2018-10-02T06:28:32.446Z,102169.21
2018-10-02T06:29:32.784Z,102169.61
2018-10-02T06:30:33.140Z,102170.28
2018-10-02T06:31:33.795Z,102170.28
2018-10-02T06:32:34.233Z,102170.95
2018-10-02T06:33:33.595Z,102171.80
2018-10-02T06:34:35.007Z,102173.15
2018-10-02T06:35:35.258Z,102174.41
2018-10-02T06:36:35.849Z,102176.09
2018-10-02T06:37:35.226Z,102176.77
2018-10-02T06:38:36.932Z,102177.84
2018-10-02T06:39:36.225Z,102178.46
2018-10-02T06:40:37.930Z,102178.04
2018-10-02T06:41:38.328Z,102178.20
2018-10-02T06:42:38.714Z,102177.95
2018-10-02T06:43:39.048Z,102178.28
2018-10-02T06:44:39.634Z,102178.62
2018-10-02T06:45:38.898Z,102178.79
2018-10-02T06:46:40.225Z,102178.87
2018-10-02T06:47:40.701Z,102178.35
2018-10-02T06:48:41.100Z,102177.91
2018-10-02T06:49:41.468Z,102178.02
2018-10-02T06:50:41.914Z,102177.41
2018-10-02T06:51:41.279Z,102176.90
2018-10-02T06:52:42.289Z,102176.86
2018-10-02T06:53:42.316Z,102176.77
2018-10-02T06:54:43.737Z,102176.85
2018-10-02T06:55:44.114Z,102176.23
2018-10-02T06:56:44.816Z,102176.37
2018-10-02T06:57:45.100Z,102176.00
2018-10-02T06:58:45.357Z,102176.00
2018-10-02T06:59:45.586Z,102175.80
2018-10-02T07:00:45.898Z,102174.88
2018-10-02T07:01:46.483Z,102174.02
2018-10-02T07:02:46.885Z,102173.55
2018-10-02T07:03:47.141Z,102173.13
2018-10-02T07:04:47.393Z,102172.70
2018-10-02T07:05:47.720Z,102172.24
2018-10-02T07:06:48.206Z,102171.65
2018-10-02T07:07:47.636Z,102170.80
2018-10-02T07:08:48.952Z,102170.02
2018-10-02T07:09:48.315Z,102168.83
2018-10-02T07:10:49.785Z,102167.64
2018-10-02T07:11:50.516Z,102165.97
2018-10-02T07:11:58.588Z,102137.81
2018-10-02T07:13:00.187Z,102150.64
2018-10-02T07:14:01.074Z,102150.30
2018-10-02T07:15:01.621Z,102149.80
2018-10-02T07:16:01.036Z,102149.13
2018-10-02T07:17:02.444Z,102149.13
2018-10-02T07:18:02.877Z,102149.13
2018-10-02T07:19:03.120Z,102148.86
2018-10-02T07:20:03.370Z,102148.10
2018-10-02T07:21:03.822Z,102148.02
2018-10-02T07:22:03.650Z,102147.69
2018-10-02T07:23:05.085Z,102147.09
2018-10-02T07:24:05.439Z,102147.18
2018-10-02T07:25:05.817Z,102146.00
2018-10-02T07:26:06.243Z,102144.73
2018-10-02T07:27:06.857Z,102144.83
2018-10-02T07:28:06.145Z,102144.39
2018-10-02T07:29:06.551Z,102144.06
2018-10-02T07:30:08.261Z,102143.55
2018-10-02T07:31:08.807Z,102143.22
2018-10-02T07:32:07.983Z,102142.20
2018-10-02T07:33:09.561Z,102141.53
2018-10-02T07:34:09.058Z,102140.53
2018-10-02T07:35:10.522Z,102140.36
2018-10-02T07:36:10.853Z,102139.44
2018-10-02T07:37:11.185Z,102139.27
2018-10-02T07:38:11.593Z,102139.34
2018-10-02T07:39:11.924Z,102138.67
2018-10-02T07:40:12.446Z,102139.02
2018-10-02T07:41:12.735Z,102140.02
2018-10-02T07:42:13.074Z,102139.80
2018-10-02T07:43:12.438Z,102140.19
2018-10-02T07:44:13.757Z,102141.03
2018-10-02T07:45:14.080Z,102141.29
2018-10-02T07:46:14.664Z,102141.72
2018-10-02T07:47:15.243Z,102142.53
2018-10-02T07:48:15.603Z,102143.30
2018-10-02T07:49:14.858Z,102143.97
2018-10-02T07:50:16.248Z,102143.71
2018-10-02T07:51:16.545Z,102144.63
2018-10-02T07:52:16.838Z,102144.83
2018-10-02T07:53:17.104Z,102144.68
2018-10-02T07:54:17.610Z,102144.91
2018-10-02T07:55:17.918Z,102145.87
2018-10-02T07:56:18.253Z,102146.61
2018-10-02T07:57:18.934Z,102147.89
2018-10-02T07:58:19.200Z,102148.58
2018-10-02T07:59:19.982Z,102149.78
2018-10-02T08:00:20.402Z,102150.38
2018-10-02T08:01:19.655Z,102151.31
2018-10-02T08:02:20.937Z,102152.69
2018-10-02T08:03:21.414Z,102153.52
2018-10-02T08:04:20.647Z,102154.61
2018-10-02T08:04:29.035Z,102169.80
2018-10-02T08:05:30.330Z,102165.63
2018-10-02T08:06:29.848Z,102165.87
2018-10-02T08:07:30.174Z,102165.63
2018-10-02T08:08:31.528Z,102163.79
2018-10-02T08:09:30.865Z,102164.03
2018-10-02T08:10:32.310Z,102163.95
2018-10-02T08:11:32.753Z,102163.52
2018-10-02T08:12:32.125Z,102162.94
2018-10-02T08:13:33.406Z,102162.52
2018-10-02T08:14:32.815Z,102162.33
2018-10-02T08:15:33.033Z,102162.00
2018-10-02T08:16:34.035Z,102161.14
2018-10-02T08:17:34.334Z,102161.66
2018-10-02T08:18:33.639Z,102162.98
2018-10-02T08:19:35.099Z,102163.91
2018-10-02T08:20:35.446Z,102165.41
2018-10-02T08:21:34.700Z,102166.25
2018-10-02T08:22:36.152Z,102166.84
2018-10-02T08:23:36.523Z,102167.59
2018-10-02T08:24:35.890Z,102167.88
2018-10-02T08:25:37.242Z,102168.29
2018-10-02T08:26:37.775Z,102168.87
2018-10-02T08:27:36.992Z,102167.97
2018-10-02T08:28:38.535Z,102168.06
2018-10-02T08:29:37.984Z,102166.90
2018-10-02T08:30:38.107Z,102165.73
2018-10-02T08:31:39.572Z,102164.56
2018-10-02T08:32:40.424Z,102163.64
2018-10-02T08:33:39.953Z,102161.83
2018-10-02T08:34:41.642Z,102160.58
2018-10-02T08:35:40.944Z,102159.35
2018-10-02T08:36:41.325Z,102157.25
2018-10-02T08:37:42.684Z,102157.17
2018-10-02T08:38:43.112Z,102156.13
2018-10-02T08:39:42.609Z,102155.29
2018-10-02T08:40:43.945Z,102154.12
2018-10-02T08:41:44.622Z,102153.72
2018-10-02T08:42:44.251Z,102153.90
2018-10-02T08:43:45.631Z,102153.75
2018-10-02T08:44:45.014Z,102153.59
2018-10-02T08:45:45.240Z,102153.69
2018-10-02T08:46:46.729Z,102153.92
2018-10-02T08:47:47.247Z,102154.70
2018-10-02T08:48:46.618Z,102155.64
2018-10-02T08:49:47.880Z,102155.73
2018-10-02T08:50:48.190Z,102155.08
2018-10-02T08:51:47.568Z,102155.23
2018-10-02T08:52:48.091Z,102155.52
2018-10-02T08:53:49.684Z,102154.92
2018-10-02T08:54:49.048Z,102153.99
2018-10-02T08:55:50.337Z,102152.30
2018-10-02T08:56:50.710Z,102151.97
2018-10-02T08:57:51.221Z,102151.63
2018-10-02T08:58:51.755Z,102150.80
2018-10-02T08:59:52.105Z,102151.39
2018-10-02T09:00:52.521Z,102151.05
2018-10-02T09:01:52.780Z,102151.05
2018-10-02T09:02:53.141Z,102150.29
2018-10-02T09:03:53.286Z,102149.95
2018-10-02T09:04:52.616Z,102148.87
2018-10-02T09:05:53.863Z,102148.22
2018-10-02T09:06:01.920Z,102140.98
2018-10-02T09:07:03.286Z,102138.48
2018-10-02T09:08:02.587Z,102137.98
2018-10-02T09:09:03.894Z,102137.40
2018-10-02T09:10:04.264Z,102136.22
2018-10-02T09:11:04.919Z,102135.27
2018-10-02T09:12:05.211Z,102133.75
2018-10-02T09:13:05.891Z,102133.00
2018-10-02T09:14:05.399Z,102132.67
2018-10-02T09:15:12.155Z,102132.06
2018-10-02T09:16:06.447Z,102131.64
2018-10-02T09:17:06.591Z,102131.48
2018-10-02T09:18:07.946Z,102130.55
2018-10-02T09:19:08.635Z,102130.53
2018-10-02T09:20:09.140Z,102129.53
2018-10-02T09:21:09.657Z,102129.44
2018-10-02T09:22:10.140Z,102129.00
2018-10-02T09:23:10.458Z,102128.05
2018-10-02T09:24:10.853Z,102127.48
2018-10-02T09:25:11.743Z,102126.86
2018-10-02T09:26:12.039Z,102126.08
2018-10-02T09:27:12.345Z,102125.73
2018-10-02T09:28:12.489Z,102125.22
2018-10-02T09:29:11.819Z,102125.20
2018-10-02T09:30:13.044Z,102124.52
2018-10-02T09:31:12.370Z,102124.00
2018-10-02T09:32:12.596Z,102123.58
2018-10-02T09:33:13.996Z,102121.72
2018-10-02T09:34:14.369Z,102120.27
2018-10-02T09:35:14.718Z,102119.02
2018-10-02T09:36:15.128Z,102118.66
2018-10-02T09:37:16.069Z,102117.48
2018-10-02T09:38:15.324Z,102116.36
2018-10-02T09:39:16.767Z,102115.59
2018-10-02T09:40:17.122Z,102114.52
2018-10-02T09:41:17.474Z,102113.40
2018-10-02T09:42:17.696Z,102112.72
2018-10-02T09:43:18.029Z,102111.86
2018-10-02T09:44:18.370Z,102110.50
2018-10-02T09:45:17.690Z,102109.03
2018-10-02T09:46:19.011Z,102107.76
2018-10-02T09:47:19.216Z,102106.49
2018-10-02T09:48:19.556Z,102105.02
2018-10-02T09:49:20.491Z,102104.25
2018-10-02T09:50:20.908Z,102103.55
2018-10-02T09:51:20.153Z,102102.59
2018-10-02T09:52:21.474Z,102101.72
2018-10-02T09:53:21.826Z,102101.02
2018-10-02T09:54:22.498Z,102100.73
2018-10-02T09:55:21.583Z,102100.45
2018-10-02T09:56:22.931Z,102100.20
2018-10-02T09:56:31.369Z,102104.45
2018-10-02T09:57:31.602Z,102104.65
2018-10-02T09:58:32.990Z,102103.80
2018-10-02T09:59:32.207Z,102103.48
2018-10-02T10:00:33.508Z,102103.83
2018-10-02T10:01:32.715Z,102104.01
2018-10-02T10:02:34.060Z,102104.38
2018-10-02T10:03:33.267Z,102104.81
2018-10-02T10:04:34.726Z,102105.34
2018-10-02T10:05:35.027Z,102106.02
2018-10-02T10:06:35.441Z,102106.41
2018-10-02T10:07:35.773Z,102107.31
2018-10-02T10:08:36.024Z,102106.99
2018-10-02T10:09:35.306Z,102106.93
2018-10-02T10:10:36.725Z,102106.38
2018-10-02T10:11:35.988Z,102106.56
2018-10-02T10:12:37.257Z,102106.47
2018-10-02T10:13:37.537Z,102106.23
2018-10-02T10:14:37.867Z,102105.91
2018-10-02T10:15:38.162Z,102106.01
2018-10-02T10:16:38.615Z,102105.77
2018-10-02T10:17:37.924Z,102105.26
2018-10-02T10:18:39.296Z,102105.45
2018-10-02T10:19:39.654Z,102105.64
2018-10-02T10:20:39.906Z,102106.14
2018-10-02T10:21:40.152Z,102105.88
2018-10-02T10:22:40.706Z,102105.48
2018-10-02T10:23:40.139Z,102104.89
2018-10-02T10:24:41.442Z,102105.05
2018-10-02T10:25:41.701Z,102104.57
2018-10-02T10:26:41.993Z,102102.88
2018-10-02T10:27:41.247Z,102102.82
2018-10-02T10:28:42.583Z,102102.48
2018-10-02T10:29:42.977Z,102101.98
2018-10-02T10:30:43.311Z,102101.14
2018-10-02T10:31:43.556Z,102100.97
2018-10-02T10:32:43.840Z,102100.04
2018-10-02T10:33:44.277Z,102099.61
2018-10-02T10:34:44.616Z,102098.88
2018-10-02T10:35:44.888Z,102097.72
2018-10-02T10:36:45.156Z,102097.20
2018-10-02T10:37:45.409Z,102095.70
2018-10-02T10:38:45.874Z,102094.45
2018-10-02T10:39:46.234Z,102093.64
2018-10-02T10:40:45.733Z,102090.94
2018-10-02T10:41:45.943Z,102089.45
2018-10-02T10:42:47.222Z,102087.77
2018-10-02T10:43:47.490Z,102086.36
2018-10-02T10:44:48.013Z,102085.03
2018-10-02T10:45:48.843Z,102084.03
2018-10-02T10:46:49.735Z,102082.75
2018-10-02T10:47:49.492Z,102081.12
2018-10-02T10:48:49.770Z,102080.12
2018-10-02T10:49:51.525Z,102078.84
2018-10-02T10:49:59.825Z,102059.81
2018-10-02T10:51:01.437Z,102064.35
2018-10-02T10:52:01.792Z,102063.34
2018-10-02T10:53:02.180Z,102062.42
2018-10-02T10:54:01.453Z,102061.67
2018-10-02T10:55:02.737Z,102061.22
2018-10-02T10:56:03.002Z,102060.66
2018-10-02T10:57:03.486Z,102060.41
2018-10-02T10:58:03.767Z,102060.06
2018-10-02T10:59:04.113Z,102059.81
2018-10-02T11:00:03.338Z,102060.14
2018-10-02T11:01:04.789Z,102060.06
2018-10-02T11:02:05.125Z,102059.31
2018-10-02T11:03:04.498Z,102058.70
2018-10-02T11:04:04.765Z,102058.95
2018-10-02T11:05:06.356Z,102058.80
2018-10-02T11:06:05.788Z,102057.67
2018-10-02T11:07:07.297Z,102057.26
2018-10-02T11:08:07.821Z,102057.77
2018-10-02T11:09:08.171Z,102057.58
2018-10-02T11:10:08.486Z,102056.72
2018-10-02T11:11:08.813Z,102056.73
2018-10-02T11:12:09.122Z,102056.98
2018-10-02T11:13:09.395Z,102057.88
2018-10-02T11:14:09.675Z,102059.06
2018-10-02T11:15:10.067Z,102059.06
2018-10-02T11:16:09.368Z,102059.58
2018-10-02T11:17:10.617Z,102059.99